Aneth, Utah
Current Conditions -  °F | °C
As of 6:15 PM on Thursday 18 Dec 2014 (Local Time) from KBDG Reporting Station
Clear Clear  
Wind Chill:   Ceiling: Unl
Heat Index:   Visibility: 10mi
Dew Point: -1°   Wind: 3mph
Humidity: 93%   Direction: 350°N
Pressure: 30.21"   Gusts: NA
Location:  37.22°N, 109.19°W
Report Text: KBDG 190115Z AUTO 35003KT 10SM CLR 00/M01 A3021 RMK AO1 T10031013
Loading
Personal Weather Stations






























Interactive Weather Map New forecast layout! Learn more

10-Day Weather Forecast

Advertisements
Track Severe Weather on mobile